Terminal Aerodrome Forecast
Issued by NWS

Home | Current Version | Previous Version | Text Only | Print | Product List | Glossary On
Versions: 1 2 3 4 5 6 7 8 9 10 11 12 13 14 15 16 17
000
FTUS42 KTBW 222337
TAFRSW
TAF
KRSW 222337Z 2300/2324 12004KT P6SM VCSH SCT050 BKN150
     FM230200 VRB04KT P6SM FEW040 SCT250
     FM231600 08008KT P6SM SCT050 BKN250
     FM232100 09008KT P6SM VCTS SCT050CB BKN090=

USA.gov is the U.S. government's official web portal to all federal, state and local government web resources and services.